sensor_id;sensor_type;location;lat;lon;timestamp;temperature;humidity
52073;DHT22;38074;51.232;6.826;2023-03-23T00:04:09;24.20;41.30
52073;DHT22;38074;51.232;6.826;2023-03-23T00:11:29;24.10;41.40
52073;DHT22;38074;51.232;6.826;2023-03-23T00:18:51;24.10;41.40
52073;DHT22;38074;51.232;6.826;2023-03-23T00:26:07;24.10;41.50
52073;DHT22;38074;51.232;6.826;2023-03-23T00:33:28;24.10;41.50
52073;DHT22;38074;51.232;6.826;2023-03-23T00:40:44;24.10;41.50
52073;DHT22;38074;51.232;6.826;2023-03-23T00:48:00;24.10;41.50
52073;DHT22;38074;51.232;6.826;2023-03-23T00:55:17;24.10;41.50
52073;DHT22;38074;51.232;6.826;2023-03-23T01:02:32;24.10;41.40
52073;DHT22;38074;51.232;6.826;2023-03-23T01:09:48;24.10;41.40
52073;DHT22;38074;51.232;6.826;2023-03-23T01:17:03;24.10;41.30
52073;DHT22;38074;51.232;6.826;2023-03-23T01:24:19;24.10;41.30
52073;DHT22;38074;51.232;6.826;2023-03-23T01:31:34;24.10;41.30
52073;DHT22;38074;51.232;6.826;2023-03-23T01:38:52;24.10;41.40
52073;DHT22;38074;51.232;6.826;2023-03-23T01:46:09;24.10;41.40
52073;DHT22;38074;51.232;6.826;2023-03-23T01:53:28;24.10;41.40
52073;DHT22;38074;51.232;6.826;2023-03-23T02:00:44;24.10;42.20
52073;DHT22;38074;51.232;6.826;2023-03-23T02:08:01;24.00;41.70
52073;DHT22;38074;51.232;6.826;2023-03-23T02:15:18;24.00;41.80
52073;DHT22;38074;51.232;6.826;2023-03-23T02:23:14;24.00;41.90
52073;DHT22;38074;51.232;6.826;2023-03-23T02:38:16;24.00;42.00
52073;DHT22;38074;51.232;6.826;2023-03-23T02:45:33;24.00;42.00
52073;DHT22;38074;51.232;6.826;2023-03-23T02:52:52;24.00;42.00
52073;DHT22;38074;51.232;6.826;2023-03-23T03:00:11;24.00;42.10
52073;DHT22;38074;51.232;6.826;2023-03-23T03:07:35;24.00;42.00
52073;DHT22;38074;51.232;6.826;2023-03-23T03:15:02;24.00;42.10
52073;DHT22;38074;51.232;6.826;2023-03-23T03:22:22;24.00;42.10
52073;DHT22;38074;51.232;6.826;2023-03-23T03:29:40;23.90;42.10
52073;DHT22;38074;51.232;6.826;2023-03-23T03:36:57;23.90;42.10
52073;DHT22;38074;51.232;6.826;2023-03-23T03:44:14;23.90;42.10
52073;DHT22;38074;51.232;6.826;2023-03-23T03:51:31;23.90;42.10
52073;DHT22;38074;51.232;6.826;2023-03-23T03:58:47;23.90;42.00
52073;DHT22;38074;51.232;6.826;2023-03-23T04:06:04;23.90;42.00
52073;DHT22;38074;51.232;6.826;2023-03-23T04:13:20;23.80;42.00
52073;DHT22;38074;51.232;6.826;2023-03-23T04:20:36;23.90;42.00
52073;DHT22;38074;51.232;6.826;2023-03-23T04:27:53;23.80;42.00
52073;DHT22;38074;51.232;6.826;2023-03-23T04:35:11;23.80;42.00
52073;DHT22;38074;51.232;6.826;2023-03-23T04:42:28;23.80;41.90
52073;DHT22;38074;51.232;6.826;2023-03-23T04:49:44;23.80;41.90
52073;DHT22;38074;51.232;6.826;2023-03-23T04:57:00;23.80;42.60
52073;DHT22;38074;51.232;6.826;2023-03-23T05:04:15;23.80;41.90
52073;DHT22;38074;51.232;6.826;2023-03-23T05:11:31;23.80;41.90
52073;DHT22;38074;51.232;6.826;2023-03-23T05:18:47;23.70;41.90
52073;DHT22;38074;51.232;6.826;2023-03-23T05:26:04;23.70;41.90
52073;DHT22;38074;51.232;6.826;2023-03-23T05:33:20;23.70;41.90
52073;DHT22;38074;51.232;6.826;2023-03-23T05:40:35;23.70;41.80
52073;DHT22;38074;51.232;6.826;2023-03-23T05:47:51;23.70;41.90
52073;DHT22;38074;51.232;6.826;2023-03-23T05:55:07;23.70;41.90
52073;DHT22;38074;51.232;6.826;2023-03-23T06:02:24;23.60;41.90
52073;DHT22;38074;51.232;6.826;2023-03-23T06:09:43;23.50;42.00
52073;DHT22;38074;51.232;6.826;2023-03-23T06:16:59;23.50;42.10
52073;DHT22;38074;51.232;6.826;2023-03-23T06:24:14;23.50;42.10
52073;DHT22;38074;51.232;6.826;2023-03-23T06:31:30;23.50;42.10
52073;DHT22;38074;51.232;6.826;2023-03-23T06:38:48;23.60;42.60
52073;DHT22;38074;51.232;6.826;2023-03-23T06:46:05;23.60;43.30
52073;DHT22;38074;51.232;6.826;2023-03-23T06:53:20;23.60;43.10
52073;DHT22;38074;51.232;6.826;2023-03-23T07:00:36;23.60;43.60
52073;DHT22;38074;51.232;6.826;2023-03-23T07:07:52;23.50;43.50
52073;DHT22;38074;51.232;6.826;2023-03-23T07:15:08;23.50;43.30
52073;DHT22;38074;51.232;6.826;2023-03-23T07:22:25;23.50;43.10
52073;DHT22;38074;51.232;6.826;2023-03-23T07:29:41;23.40;42.80
52073;DHT22;38074;51.232;6.826;2023-03-23T07:36:57;23.50;42.70
52073;DHT22;38074;51.232;6.826;2023-03-23T07:44:13;23.50;42.00
52073;DHT22;38074;51.232;6.826;2023-03-23T07:51:28;23.50;42.10
52073;DHT22;38074;51.232;6.826;2023-03-23T07:58:45;23.50;42.40
52073;DHT22;38074;51.232;6.826;2023-03-23T08:06:01;23.50;42.60
52073;DHT22;38074;51.232;6.826;2023-03-23T08:13:17;23.60;42.30
52073;DHT22;38074;51.232;6.826;2023-03-23T08:20:33;23.60;42.40
52073;DHT22;38074;51.232;6.826;2023-03-23T08:27:49;23.70;42.40
52073;DHT22;38074;51.232;6.826;2023-03-23T08:35:05;23.70;42.30
52073;DHT22;38074;51.232;6.826;2023-03-23T08:42:23;23.70;41.40
52073;DHT22;38074;51.232;6.826;2023-03-23T08:49:39;23.50;41.80
52073;DHT22;38074;51.232;6.826;2023-03-23T08:56:55;23.60;42.00
52073;DHT22;38074;51.232;6.826;2023-03-23T09:04:10;23.70;42.10
52073;DHT22;38074;51.232;6.826;2023-03-23T09:11:26;23.80;42.10
52073;DHT22;38074;51.232;6.826;2023-03-23T09:18:42;23.80;41.70
52073;DHT22;38074;51.232;6.826;2023-03-23T09:26:00;23.80;41.90
52073;DHT22;38074;51.232;6.826;2023-03-23T09:33:16;23.90;41.90
52073;DHT22;38074;51.232;6.826;2023-03-23T09:56:13;23.90;41.30
52073;DHT22;38074;51.232;6.826;2023-03-23T10:03:41;23.80;41.80
52073;DHT22;38074;51.232;6.826;2023-03-23T10:11:02;23.90;41.30
52073;DHT22;38074;51.232;6.826;2023-03-23T10:18:58;23.90;41.90
52073;DHT22;38074;51.232;6.826;2023-03-23T10:34:12;24.00;42.10
52073;DHT22;38074;51.232;6.826;2023-03-23T10:41:28;24.00;42.30
52073;DHT22;38074;51.232;6.826;2023-03-23T10:48:44;24.00;42.30
52073;DHT22;38074;51.232;6.826;2023-03-23T10:56:00;24.10;42.40
52073;DHT22;38074;51.232;6.826;2023-03-23T11:10:39;24.00;42.50
52073;DHT22;38074;51.232;6.826;2023-03-23T11:17:58;24.10;42.70
52073;DHT22;38074;51.232;6.826;2023-03-23T11:25:14;24.00;42.70
52073;DHT22;38074;51.232;6.826;2023-03-23T11:32:30;24.10;42.70
52073;DHT22;38074;51.232;6.826;2023-03-23T11:39:55;24.10;42.90
52073;DHT22;38074;51.232;6.826;2023-03-23T11:54:56;24.20;43.10
52073;DHT22;38074;51.232;6.826;2023-03-23T12:09:33;24.30;43.00
52073;DHT22;38074;51.232;6.826;2023-03-23T12:17:05;24.30;42.90
52073;DHT22;38074;51.232;6.826;2023-03-23T12:32:25;24.30;42.90
52073;DHT22;38074;51.232;6.826;2023-03-23T12:40:06;24.40;43.00
52073;DHT22;38074;51.232;6.826;2023-03-23T12:47:38;24.40;43.00
52073;DHT22;38074;51.232;6.826;2023-03-23T12:55:06;24.40;43.00
52073;DHT22;38074;51.232;6.826;2023-03-23T13:02:33;24.40;43.00
52073;DHT22;38074;51.232;6.826;2023-03-23T13:10:07;24.40;43.00
52073;DHT22;38074;51.232;6.826;2023-03-23T13:25:02;24.50;43.10
52073;DHT22;38074;51.232;6.826;2023-03-23T13:32:19;24.50;43.10
52073;DHT22;38074;51.232;6.826;2023-03-23T13:54:46;24.50;43.20
52073;DHT22;38074;51.232;6.826;2023-03-23T14:02:38;24.60;43.30
52073;DHT22;38074;51.232;6.826;2023-03-23T14:09:55;24.50;43.20
52073;DHT22;38074;51.232;6.826;2023-03-23T14:17:14;24.50;43.20
52073;DHT22;38074;51.232;6.826;2023-03-23T14:24:39;24.40;43.30
52073;DHT22;38074;51.232;6.826;2023-03-23T14:31:57;24.40;43.40
52073;DHT22;38074;51.232;6.826;2023-03-23T14:39:32;24.40;43.40
52073;DHT22;38074;51.232;6.826;2023-03-23T14:46:49;24.40;43.50
52073;DHT22;38074;51.232;6.826;2023-03-23T14:54:08;24.30;43.40
52073;DHT22;38074;51.232;6.826;2023-03-23T15:01:28;24.40;43.50
52073;DHT22;38074;51.232;6.826;2023-03-23T15:08:46;24.30;43.50
52073;DHT22;38074;51.232;6.826;2023-03-23T15:16:05;24.30;43.50
52073;DHT22;38074;51.232;6.826;2023-03-23T15:23:28;24.30;43.60
52073;DHT22;38074;51.232;6.826;2023-03-23T15:30:53;24.30;43.60
52073;DHT22;38074;51.232;6.826;2023-03-23T15:38:25;24.30;43.70
52073;DHT22;38074;51.232;6.826;2023-03-23T15:45:52;24.30;43.70
52073;DHT22;38074;51.232;6.826;2023-03-23T15:53:28;24.30;43.70
52073;DHT22;38074;51.232;6.826;2023-03-23T16:00:44;24.30;43.70
52073;DHT22;38074;51.232;6.826;2023-03-23T16:08:00;24.30;43.70
52073;DHT22;38074;51.232;6.826;2023-03-23T16:15:16;24.30;43.70
52073;DHT22;38074;51.232;6.826;2023-03-23T16:22:32;24.30;43.70
52073;DHT22;38074;51.232;6.826;2023-03-23T16:29:47;24.30;43.70
52073;DHT22;38074;51.232;6.826;2023-03-23T16:37:03;24.30;43.70
52073;DHT22;38074;51.232;6.826;2023-03-23T16:44:18;24.30;43.70
52073;DHT22;38074;51.232;6.826;2023-03-23T16:51:34;24.30;43.70
52073;DHT22;38074;51.232;6.826;2023-03-23T16:58:49;24.30;43.70
52073;DHT22;38074;51.232;6.826;2023-03-23T17:06:05;24.30;43.70
52073;DHT22;38074;51.232;6.826;2023-03-23T17:13:21;24.30;43.70
52073;DHT22;38074;51.232;6.826;2023-03-23T17:20:37;24.30;43.70
52073;DHT22;38074;51.232;6.826;2023-03-23T17:27:53;24.30;43.70
52073;DHT22;38074;51.232;6.826;2023-03-23T17:35:08;24.30;43.60
52073;DHT22;38074;51.232;6.826;2023-03-23T17:42:24;24.40;43.60
52073;DHT22;38074;51.232;6.826;2023-03-23T17:49:39;24.40;43.60
52073;DHT22;38074;51.232;6.826;2023-03-23T17:56:56;24.30;43.60
52073;DHT22;38074;51.232;6.826;2023-03-23T18:04:18;24.30;43.70
52073;DHT22;38074;51.232;6.826;2023-03-23T18:11:34;24.20;43.70
52073;DHT22;38074;51.232;6.826;2023-03-23T18:18:49;24.20;43.70
52073;DHT22;38074;51.232;6.826;2023-03-23T18:26:07;24.20;43.80
52073;DHT22;38074;51.232;6.826;2023-03-23T18:33:22;24.20;43.70
52073;DHT22;38074;51.232;6.826;2023-03-23T18:40:44;24.10;43.70
52073;DHT22;38074;51.232;6.826;2023-03-23T18:47:59;24.10;43.60
52073;DHT22;38074;51.232;6.826;2023-03-23T18:55:15;24.10;43.70
52073;DHT22;38074;51.232;6.826;2023-03-23T19:02:30;24.10;43.50
52073;DHT22;38074;51.232;6.826;2023-03-23T19:09:46;24.10;43.50
52073;DHT22;38074;51.232;6.826;2023-03-23T19:17:02;24.10;43.60
52073;DHT22;38074;51.232;6.826;2023-03-23T19:24:18;24.10;44.20
52073;DHT22;38074;51.232;6.826;2023-03-23T19:31:34;24.10;43.60
52073;DHT22;38074;51.232;6.826;2023-03-23T19:38:50;24.10;43.70
52073;DHT22;38074;51.232;6.826;2023-03-23T19:46:07;24.10;43.50
52073;DHT22;38074;51.232;6.826;2023-03-23T19:53:23;24.10;43.50
52073;DHT22;38074;51.232;6.826;2023-03-23T20:00:39;24.10;43.60
52073;DHT22;38074;51.232;6.826;2023-03-23T20:07:55;24.10;43.60
52073;DHT22;38074;51.232;6.826;2023-03-23T20:15:10;24.10;43.60
52073;DHT22;38074;51.232;6.826;2023-03-23T20:22:26;24.10;43.60
52073;DHT22;38074;51.232;6.826;2023-03-23T20:29:43;24.10;43.60
52073;DHT22;38074;51.232;6.826;2023-03-23T20:36:59;24.10;43.50
52073;DHT22;38074;51.232;6.826;2023-03-23T20:44:17;24.10;43.50
52073;DHT22;38074;51.232;6.826;2023-03-23T20:51:33;24.10;43.50
52073;DHT22;38074;51.232;6.826;2023-03-23T20:58:49;24.10;43.50
52073;DHT22;38074;51.232;6.826;2023-03-23T21:06:05;24.00;43.40
52073;DHT22;38074;51.232;6.826;2023-03-23T21:13:21;24.00;43.40
52073;DHT22;38074;51.232;6.826;2023-03-23T21:20:38;24.00;43.40
52073;DHT22;38074;51.232;6.826;2023-03-23T21:27:54;24.10;43.40
52073;DHT22;38074;51.232;6.826;2023-03-23T21:35:10;24.10;43.40
52073;DHT22;38074;51.232;6.826;2023-03-23T21:42:25;24.10;43.40
52073;DHT22;38074;51.232;6.826;2023-03-23T21:49:44;24.10;43.40
52073;DHT22;38074;51.232;6.826;2023-03-23T21:57:00;24.10;43.40
52073;DHT22;38074;51.232;6.826;2023-03-23T22:04:16;24.00;43.40
52073;DHT22;38074;51.232;6.826;2023-03-23T22:11:32;24.10;43.40
52073;DHT22;38074;51.232;6.826;2023-03-23T22:18:48;24.00;43.40
52073;DHT22;38074;51.232;6.826;2023-03-23T22:26:06;24.10;43.40
52073;DHT22;38074;51.232;6.826;2023-03-23T22:33:21;24.10;43.40
52073;DHT22;38074;51.232;6.826;2023-03-23T22:40:37;24.10;43.40
52073;DHT22;38074;51.232;6.826;2023-03-23T22:47:53;24.00;43.40
52073;DHT22;38074;51.232;6.826;2023-03-23T22:55:08;24.10;43.50
52073;DHT22;38074;51.232;6.826;2023-03-23T23:02:24;24.10;43.50
52073;DHT22;38074;51.232;6.826;2023-03-23T23:09:44;24.10;43.60
52073;DHT22;38074;51.232;6.826;2023-03-23T23:16:59;24.10;43.70
52073;DHT22;38074;51.232;6.826;2023-03-23T23:24:15;24.10;43.70
52073;DHT22;38074;51.232;6.826;2023-03-23T23:31:31;24.10;43.70
52073;DHT22;38074;51.232;6.826;2023-03-23T23:38:48;24.00;43.70
52073;DHT22;38074;51.232;6.826;2023-03-23T23:46:03;24.10;43.80
52073;DHT22;38074;51.232;6.826;2023-03-23T23:53:19;24.10;43.90
